createdAt,value
2019-05-02T00:00:17.552Z,8.20
2019-05-02T00:02:46.582Z,8.20
2019-05-02T00:05:17.462Z,8.20
2019-05-02T00:07:46.488Z,8.20
2019-05-02T00:10:19.937Z,8.10
2019-05-02T00:12:50.467Z,8.10
2019-05-02T00:15:19.883Z,8.00
2019-05-02T00:17:48.942Z,8.00
2019-05-02T00:20:25.599Z,8.00
2019-05-02T00:22:52.192Z,8.00
2019-05-02T00:25:20.102Z,8.00
2019-05-02T00:27:49.070Z,8.00
2019-05-02T00:30:18.671Z,8.00
2019-05-02T00:32:47.746Z,8.00
2019-05-02T00:35:16.930Z,7.90
2019-05-02T00:37:45.899Z,7.90
2019-05-02T00:40:15.051Z,7.90
2019-05-02T00:42:44.087Z,7.90
2019-05-02T00:45:14.161Z,7.90
2019-05-02T00:47:49.787Z,7.90
2019-05-02T00:50:19.222Z,7.90
2019-05-02T00:52:48.242Z,7.90
2019-05-02T00:55:17.481Z,7.80
2019-05-02T00:57:46.549Z,7.80
2019-05-02T01:00:18.261Z,7.80
2019-05-02T01:02:58.207Z,7.80
2019-05-02T01:05:27.223Z,7.80
2019-05-02T01:08:01.035Z,7.80
2019-05-02T01:10:27.489Z,7.70
2019-05-02T01:12:56.595Z,7.70
2019-05-02T01:15:25.619Z,7.70
2019-05-02T01:17:54.634Z,7.70
2019-05-02T01:20:27.512Z,7.70
2019-05-02T01:22:54.572Z,7.70
2019-05-02T01:25:23.610Z,7.60
2019-05-02T01:28:12.469Z,7.60
2019-05-02T01:30:58.529Z,7.60
2019-05-02T01:33:43.613Z,7.60
2019-05-02T01:36:18.302Z,7.60
2019-05-02T01:38:49.271Z,7.60
2019-05-02T01:41:18.298Z,7.60
2019-05-02T01:43:47.251Z,7.60
2019-05-02T01:46:16.948Z,7.60
2019-05-02T01:48:47.740Z,7.60
2019-05-02T01:51:17.070Z,7.60
2019-05-02T01:53:46.023Z,7.50
2019-05-02T01:56:15.021Z,7.50
2019-05-02T01:58:44.093Z,7.50
2019-05-02T02:01:16.256Z,7.50
2019-05-02T02:03:45.512Z,7.50
2019-05-02T02:06:14.779Z,7.50
2019-05-02T02:08:43.811Z,7.50
2019-05-02T02:11:12.854Z,7.50
2019-05-02T02:13:41.794Z,7.50
2019-05-02T02:16:10.848Z,7.40
2019-05-02T02:18:45.766Z,7.40
2019-05-02T02:21:25.612Z,7.40
2019-05-02T02:24:03.453Z,7.40
2019-05-02T02:26:32.421Z,7.40
2019-05-02T02:29:03.152Z,7.40
2019-05-02T02:31:32.214Z,7.40
2019-05-02T02:34:01.258Z,7.30
2019-05-02T02:36:33.944Z,7.30
2019-05-02T02:39:07.007Z,7.30
2019-05-02T02:41:31.792Z,7.30
2019-05-02T02:44:22.365Z,7.30
2019-05-02T02:46:51.899Z,7.30
2019-05-02T02:49:24.030Z,7.30
2019-05-02T02:51:57.499Z,7.30
2019-05-02T02:54:22.376Z,7.30
2019-05-02T02:56:51.483Z,7.30
2019-05-02T02:59:26.436Z,7.20
2019-05-02T03:01:51.208Z,7.20
2019-05-02T03:04:20.247Z,7.20
2019-05-02T03:06:49.402Z,7.20
2019-05-02T03:09:20.141Z,7.20
2019-05-02T03:12:08.272Z,7.20
2019-05-02T03:14:47.298Z,7.20
2019-05-02T03:17:12.222Z,7.20
2019-05-02T03:19:41.296Z,7.20
2019-05-02T03:22:10.268Z,7.10
2019-05-02T03:24:44.267Z,7.10
2019-05-02T03:27:10.066Z,7.20
2019-05-02T03:29:43.820Z,7.20
2019-05-02T03:32:21.683Z,7.20
2019-05-02T03:34:53.563Z,7.20
2019-05-02T03:37:13.947Z,7.20
2019-05-02T03:39:49.317Z,7.10
2019-05-02T03:42:13.563Z,7.10
2019-05-02T03:44:42.609Z,7.10
2019-05-02T03:47:12.083Z,7.10
2019-05-02T03:49:48.681Z,7.10
2019-05-02T03:52:12.334Z,7.10
2019-05-02T03:54:49.718Z,7.10
2019-05-02T03:57:12.151Z,7.10
2019-05-02T03:59:41.834Z,7.10
2019-05-02T04:02:14.262Z,7.10
2019-05-02T04:04:43.234Z,7.10
2019-05-02T04:07:13.268Z,7.10
2019-05-02T04:09:42.824Z,7.10
2019-05-02T04:12:18.648Z,7.10
2019-05-02T04:14:43.594Z,7.10
2019-05-02T04:17:12.958Z,7.10
2019-05-02T04:19:42.777Z,7.10
2019-05-02T04:22:12.499Z,7.10
2019-05-02T04:24:47.940Z,7.10
2019-05-02T04:27:13.086Z,7.10
2019-05-02T04:29:42.813Z,7.20
2019-05-02T04:32:14.321Z,7.20
2019-05-02T04:34:42.668Z,7.30
2019-05-02T04:37:11.770Z,7.30
2019-05-02T04:39:40.796Z,7.40
2019-05-02T04:42:18.670Z,7.50
2019-05-02T04:44:59.804Z,7.60
2019-05-02T04:47:17.540Z,7.60
2019-05-02T04:49:42.060Z,7.70
2019-05-02T04:52:13.297Z,7.80
2019-05-02T04:54:41.963Z,7.90
2019-05-02T04:57:10.998Z,8.00
2019-05-02T04:59:39.928Z,8.10
2019-05-02T05:02:09.400Z,8.20
2019-05-02T05:04:45.912Z,8.30
2019-05-02T05:07:09.646Z,8.30
2019-05-02T05:09:40.384Z,8.40
2019-05-02T05:12:09.733Z,8.50
2019-05-02T05:14:43.053Z,8.50
2019-05-02T05:17:09.507Z,8.60
2019-05-02T05:19:38.591Z,8.60
2019-05-02T05:22:11.731Z,8.70
2019-05-02T05:24:51.505Z,8.80
2019-05-02T05:27:22.835Z,8.90
2019-05-02T05:29:53.579Z,9.00
2019-05-02T05:32:21.991Z,9.10
2019-05-02T05:34:51.212Z,9.20
2019-05-02T05:37:20.291Z,9.40
2019-05-02T05:39:52.560Z,9.60
2019-05-02T05:42:23.413Z,9.70
2019-05-02T05:44:50.856Z,9.90
2019-05-02T05:47:21.297Z,10.10
2019-05-02T05:49:52.245Z,10.30
2019-05-02T05:52:21.335Z,10.60
2019-05-02T05:54:50.380Z,10.90
2019-05-02T05:57:21.068Z,11.10
2019-05-02T05:59:50.132Z,11.30
2019-05-02T06:02:19.263Z,11.50
2019-05-02T06:04:50.193Z,11.40
2019-05-02T06:07:20.092Z,11.50
2019-05-02T06:09:49.495Z,11.60
2019-05-02T06:12:18.439Z,12.20
2019-05-02T06:14:47.540Z,13.80
2019-05-02T06:17:16.712Z,15.50
2019-05-02T06:19:48.233Z,17.30
2019-05-02T06:22:24.136Z,19.10
2019-05-02T06:24:50.834Z,20.30
2019-05-02T06:27:20.949Z,21.70
2019-05-02T06:29:51.154Z,22.80
2019-05-02T06:32:20.706Z,23.50
2019-05-02T06:34:49.994Z,24.10
2019-05-02T06:37:19.048Z,24.40
2019-05-02T06:39:48.157Z,24.50
2019-05-02T06:42:17.205Z,24.60
2019-05-02T06:44:46.419Z,25.00
2019-05-02T06:47:15.969Z,25.50
2019-05-02T06:49:45.017Z,25.90
2019-05-02T06:52:14.056Z,26.20
2019-05-02T06:54:43.072Z,26.60
2019-05-02T06:57:12.247Z,26.80
2019-05-02T06:59:41.200Z,27.20
2019-05-02T07:02:10.329Z,27.50
2019-05-02T07:04:39.469Z,27.40
2019-05-02T07:07:08.776Z,27.70
2019-05-02T07:09:40.694Z,27.60
2019-05-02T07:12:09.944Z,27.30
2019-05-02T07:14:39.372Z,27.80
2019-05-02T07:17:34.233Z,27.80
2019-05-02T07:20:03.898Z,27.70
2019-05-02T07:22:38.707Z,27.60
2019-05-02T07:25:07.005Z,27.50
2019-05-02T07:27:39.221Z,27.30
2019-05-02T07:30:08.614Z,27.00
2019-05-02T07:32:37.712Z,27.10
2019-05-02T07:35:07.190Z,27.20
2019-05-02T07:37:36.244Z,26.70
2019-05-02T07:40:06.178Z,25.90
2019-05-02T07:42:36.927Z,24.30
2019-05-02T07:45:09.281Z,22.90
2019-05-02T07:47:40.273Z,21.60
2019-05-02T07:50:10.371Z,20.40
2019-05-02T07:52:41.215Z,19.40
2019-05-02T07:55:10.579Z,18.80
2019-05-02T07:57:39.679Z,18.30
2019-05-02T08:00:10.598Z,17.80
2019-05-02T08:02:39.630Z,17.50
2019-05-02T08:05:09.397Z,17.30
2019-05-02T08:07:38.518Z,17.00
2019-05-02T08:10:08.057Z,16.90
2019-05-02T08:12:37.179Z,16.60
2019-05-02T08:15:12.962Z,16.50
2019-05-02T08:17:39.526Z,16.40
2019-05-02T08:20:08.859Z,16.20
2019-05-02T08:22:38.085Z,16.20
2019-05-02T08:25:10.512Z,16.10
2019-05-02T08:27:49.228Z,16.10
2019-05-02T08:30:25.198Z,16.20
2019-05-02T08:32:54.523Z,16.30
2019-05-02T08:35:23.625Z,16.30
2019-05-02T08:37:55.718Z,16.20
2019-05-02T08:40:23.559Z,16.10
2019-05-02T08:42:52.584Z,16.10
2019-05-02T08:45:21.832Z,16.20
2019-05-02T08:47:50.891Z,16.10
2019-05-02T08:50:19.986Z,16.10
2019-05-02T08:52:49.172Z,16.10
2019-05-02T08:55:18.290Z,16.00
2019-05-02T08:57:47.338Z,15.90
2019-05-02T09:00:16.787Z,15.80
2019-05-02T09:02:45.754Z,15.60
2019-05-02T09:05:14.842Z,15.60
2019-05-02T09:07:43.963Z,15.50
2019-05-02T09:10:13.843Z,15.40
2019-05-02T09:12:45.375Z,15.30
2019-05-02T09:15:14.398Z,15.30
2019-05-02T09:17:51.529Z,15.20
2019-05-02T09:20:20.580Z,15.20
2019-05-02T09:22:52.215Z,15.00
2019-05-02T09:25:18.011Z,14.90
2019-05-02T09:27:47.310Z,14.80
2019-05-02T09:30:21.482Z,14.70
2019-05-02T09:32:51.999Z,14.60
2019-05-02T09:35:20.497Z,14.50
2019-05-02T09:37:49.553Z,14.50
2019-05-02T09:40:18.811Z,14.50
2019-05-02T09:42:53.434Z,14.40
2019-05-02T09:45:27.591Z,14.40
2019-05-02T09:48:01.537Z,14.30
2019-05-02T09:50:31.058Z,14.30
2019-05-02T09:52:55.196Z,14.30
2019-05-02T09:55:24.268Z,14.30
2019-05-02T09:57:53.303Z,14.30
2019-05-02T10:00:41.942Z,14.30
2019-05-02T10:03:12.060Z,14.20
2019-05-02T10:05:43.114Z,14.10
2019-05-02T10:08:13.855Z,14.10
2019-05-02T10:10:45.882Z,14.10
2019-05-02T10:13:13.875Z,14.10
2019-05-02T10:15:43.150Z,14.20
2019-05-02T10:18:14.587Z,14.10
2019-05-02T10:20:44.342Z,14.10
2019-05-02T10:23:19.604Z,14.10
2019-05-02T10:25:46.975Z,14.20
2019-05-02T10:28:16.430Z,14.20
2019-05-02T10:30:47.262Z,14.10
2019-05-02T10:33:17.247Z,14.10
2019-05-02T10:35:48.271Z,14.00
2019-05-02T10:38:19.425Z,13.90
2019-05-02T10:40:52.849Z,13.90
2019-05-02T10:43:18.967Z,13.80
2019-05-02T10:45:52.876Z,13.70
2019-05-02T10:48:27.690Z,13.60
2019-05-02T10:50:55.089Z,13.60
2019-05-02T10:53:24.089Z,13.60
2019-05-02T10:55:53.179Z,13.60
2019-05-02T10:58:26.249Z,13.60
2019-05-02T11:00:52.917Z,13.70
2019-05-02T11:03:37.935Z,13.70
2019-05-02T11:06:08.228Z,13.90
2019-05-02T11:08:42.194Z,14.20
2019-05-02T11:11:08.841Z,14.30
2019-05-02T11:14:00.898Z,14.40
2019-05-02T11:16:34.379Z,14.50
2019-05-02T11:19:06.028Z,14.50
2019-05-02T11:21:35.059Z,14.20
2019-05-02T11:24:06.553Z,14.10
2019-05-02T11:26:35.625Z,13.90
2019-05-02T11:29:04.980Z,13.80
2019-05-02T11:31:34.003Z,13.60
2019-05-02T11:34:03.028Z,13.40
2019-05-02T11:36:32.841Z,13.40
2019-05-02T11:39:12.412Z,13.30
2019-05-02T11:41:32.817Z,13.20
2019-05-02T11:44:02.954Z,13.20
2019-05-02T11:46:33.126Z,13.20
2019-05-02T11:49:02.688Z,13.10
2019-05-02T11:51:32.602Z,13.00
2019-05-02T11:54:07.646Z,12.90
2019-05-02T11:56:33.063Z,12.90
2019-05-02T11:59:02.995Z,12.90
2019-05-02T12:01:37.178Z,12.90
2019-05-02T12:04:03.082Z,13.00
2019-05-02T12:06:33.171Z,13.00
2019-05-02T12:09:04.383Z,13.10
2019-05-02T12:11:33.385Z,13.10
2019-05-02T12:14:02.635Z,13.10
2019-05-02T12:16:32.344Z,13.20
2019-05-02T12:19:09.513Z,13.30
2019-05-02T12:21:32.653Z,13.30
2019-05-02T12:24:02.451Z,13.30
2019-05-02T12:26:32.366Z,13.40
2019-05-02T12:29:02.563Z,13.40
2019-05-02T12:31:32.895Z,13.40
2019-05-02T12:34:04.627Z,13.50
2019-05-02T12:36:33.669Z,13.70
2019-05-02T12:39:02.773Z,13.70
2019-05-02T12:41:33.139Z,13.80
2019-05-02T12:44:03.037Z,13.80
2019-05-02T12:46:32.053Z,13.80
2019-05-02T12:49:02.848Z,13.70
2019-05-02T12:51:32.232Z,13.70
2019-05-02T12:54:02.295Z,13.60
2019-05-02T12:56:32.444Z,13.50
2019-05-02T12:59:02.416Z,13.40
2019-05-02T13:01:33.042Z,13.60
2019-05-02T13:04:09.199Z,13.90
2019-05-02T13:06:38.321Z,14.10
2019-05-02T13:09:12.793Z,14.20
2019-05-02T13:12:13.695Z,14.30
2019-05-02T13:14:42.726Z,14.30
2019-05-02T13:17:12.056Z,14.50
2019-05-02T13:19:54.926Z,14.60
2019-05-02T13:22:21.791Z,14.70
2019-05-02T13:24:54.889Z,14.70
2019-05-02T13:27:24.807Z,14.70
2019-05-02T13:29:53.859Z,14.50
2019-05-02T13:32:28.361Z,14.60
2019-05-02T13:35:17.554Z,14.60
2019-05-02T13:37:47.801Z,14.60
2019-05-02T13:40:42.507Z,14.70
2019-05-02T13:43:12.645Z,14.70
2019-05-02T13:45:59.851Z,14.70
2019-05-02T13:48:32.263Z,14.80
2019-05-02T13:51:03.754Z,14.90
2019-05-02T13:53:33.100Z,14.80
2019-05-02T13:56:21.817Z,14.80
2019-05-02T13:58:51.864Z,14.80
2019-05-02T14:01:22.448Z,14.80
2019-05-02T14:03:55.520Z,14.80
2019-05-02T14:06:29.506Z,14.80
2019-05-02T14:09:18.398Z,14.70
2019-05-02T14:11:49.189Z,14.60
2019-05-02T14:14:18.476Z,14.70
2019-05-02T14:16:47.540Z,14.60
2019-05-02T14:19:16.768Z,14.60
2019-05-02T14:21:45.786Z,14.80
2019-05-02T14:24:14.817Z,14.90
2019-05-02T14:26:43.857Z,15.00
2019-05-02T14:29:16.229Z,15.10
2019-05-02T14:31:43.817Z,15.30
2019-05-02T14:34:33.158Z,15.20
2019-05-02T14:37:02.217Z,15.10
2019-05-02T14:39:32.495Z,15.10
2019-05-02T14:42:02.218Z,15.10
2019-05-02T14:44:59.908Z,15.10
2019-05-02T14:47:02.455Z,15.20
2019-05-02T14:49:32.134Z,15.00
2019-05-02T14:52:03.020Z,14.90
2019-05-02T14:54:32.513Z,14.80
2019-05-02T14:57:21.945Z,14.90
2019-05-02T14:59:50.414Z,14.80
2019-05-02T15:02:39.306Z,14.70
2019-05-02T15:05:07.030Z,14.60
2019-05-02T15:07:38.398Z,14.50
2019-05-02T15:10:07.540Z,14.70
2019-05-02T15:12:36.778Z,14.70
2019-05-02T15:15:06.661Z,14.70
2019-05-02T15:17:37.874Z,14.80
2019-05-02T15:20:08.699Z,14.90
2019-05-02T15:22:37.785Z,15.00
2019-05-02T15:25:12.670Z,15.10
2019-05-02T15:27:42.355Z,15.20
2019-05-02T15:30:10.552Z,15.50
2019-05-02T15:33:04.734Z,15.30
2019-05-02T15:35:57.242Z,15.20
2019-05-02T15:38:28.154Z,14.90
2019-05-02T15:40:59.352Z,14.60
2019-05-02T15:43:28.285Z,14.70
2019-05-02T15:45:57.349Z,14.60
2019-05-02T15:48:27.662Z,14.70
2019-05-02T15:51:00.009Z,14.80
2019-05-02T15:53:43.762Z,14.90
2019-05-02T15:56:18.693Z,14.90
2019-05-02T15:58:42.533Z,14.90
2019-05-02T16:01:27.509Z,14.80
2019-05-02T16:03:57.259Z,14.80
2019-05-02T16:06:31.581Z,14.80
2019-05-02T16:08:58.066Z,14.90
2019-05-02T16:11:27.207Z,14.80
2019-05-02T16:13:56.377Z,14.70
2019-05-02T16:16:25.517Z,14.60
2019-05-02T16:18:54.495Z,14.60
2019-05-02T16:21:32.449Z,14.50
2019-05-02T16:24:18.998Z,14.40
2019-05-02T16:26:48.541Z,14.20
2019-05-02T16:29:23.323Z,14.10
2019-05-02T16:32:05.396Z,14.00
2019-05-02T16:34:35.826Z,13.90
2019-05-02T16:37:16.573Z,13.70
2019-05-02T16:39:49.233Z,13.70
2019-05-02T16:42:13.129Z,13.80
2019-05-02T16:44:42.908Z,13.90
2019-05-02T16:47:13.907Z,14.00
2019-05-02T16:49:43.375Z,14.00
2019-05-02T16:52:13.141Z,14.10
2019-05-02T16:54:43.836Z,14.10
2019-05-02T16:57:17.507Z,14.00
2019-05-02T16:59:44.284Z,13.70
2019-05-02T17:02:17.480Z,13.60
2019-05-02T17:04:46.583Z,13.60
2019-05-02T17:07:22.107Z,13.40
2019-05-02T17:10:17.706Z,13.40
2019-05-02T17:12:47.316Z,13.30
2019-05-02T17:15:36.736Z,13.20
2019-05-02T17:18:12.984Z,13.10
2019-05-02T17:20:37.820Z,13.00
2019-05-02T17:23:07.749Z,13.00
2019-05-02T17:25:37.032Z,13.00
2019-05-02T17:28:10.350Z,13.20
2019-05-02T17:30:39.202Z,13.30
2019-05-02T17:33:14.235Z,13.40
2019-05-02T17:35:41.643Z,13.20
2019-05-02T17:38:09.165Z,13.10
2019-05-02T17:40:38.228Z,13.00
2019-05-02T17:43:07.513Z,12.90
2019-05-02T17:45:38.725Z,12.80
2019-05-02T17:48:15.271Z,12.70
2019-05-02T17:51:01.963Z,12.60
2019-05-02T17:53:35.339Z,12.50
2019-05-02T17:56:01.876Z,12.40
2019-05-02T17:58:31.811Z,12.40
2019-05-02T18:01:02.811Z,12.40
2019-05-02T18:03:35.188Z,12.30
2019-05-02T18:06:02.920Z,12.20
2019-05-02T18:08:33.489Z,12.20
2019-05-02T18:11:03.021Z,12.20
2019-05-02T18:13:33.843Z,12.20
2019-05-02T18:16:02.928Z,12.20
2019-05-02T18:18:32.070Z,12.20
2019-05-02T18:21:02.036Z,12.30
2019-05-02T18:23:32.265Z,12.30
2019-05-02T18:26:04.500Z,12.30
2019-05-02T18:28:32.372Z,12.30
2019-05-02T18:31:02.781Z,12.30
2019-05-02T18:33:35.923Z,12.40
2019-05-02T18:36:02.934Z,12.40
2019-05-02T18:38:52.528Z,12.30
2019-05-02T18:41:22.103Z,12.40
2019-05-02T18:43:52.115Z,12.30
2019-05-02T18:46:22.303Z,12.20
2019-05-02T18:48:51.910Z,12.00
2019-05-02T18:51:21.835Z,11.90
2019-05-02T18:53:52.919Z,11.90
2019-05-02T18:56:22.218Z,11.90
2019-05-02T18:58:53.359Z,11.90
2019-05-02T19:01:22.230Z,11.90
2019-05-02T19:03:52.575Z,11.90
2019-05-02T19:06:22.283Z,11.80
2019-05-02T19:08:53.175Z,11.70
2019-05-02T19:11:26.656Z,11.70
2019-05-02T19:13:53.466Z,11.70
2019-05-02T19:16:27.223Z,11.70
2019-05-02T19:18:57.029Z,11.70
2019-05-02T19:21:26.416Z,11.60
2019-05-02T19:23:55.285Z,11.50
2019-05-02T19:26:24.391Z,11.50
2019-05-02T19:29:08.411Z,11.50
2019-05-02T19:31:44.428Z,11.50
2019-05-02T19:34:09.193Z,11.50
2019-05-02T19:36:40.907Z,11.40
2019-05-02T19:39:09.938Z,11.40
2019-05-02T19:41:43.990Z,11.40
2019-05-02T19:44:10.214Z,11.30
2019-05-02T19:46:39.416Z,11.30
2019-05-02T19:49:12.485Z,11.40
2019-05-02T19:51:39.388Z,11.30
2019-05-02T19:54:08.459Z,11.30
2019-05-02T19:56:45.874Z,11.40
2019-05-02T19:59:08.498Z,11.30
2019-05-02T20:01:37.745Z,11.30
2019-05-02T20:04:09.324Z,11.30
2019-05-02T20:06:37.681Z,11.30
2019-05-02T20:09:08.881Z,11.30
2019-05-02T20:11:38.471Z,11.30
2019-05-02T20:14:09.647Z,11.20
2019-05-02T20:16:45.993Z,11.20
2019-05-02T20:19:17.310Z,11.10
2019-05-02T20:21:52.044Z,11.10
2019-05-02T20:24:22.675Z,11.20
2019-05-02T20:26:55.988Z,11.20
2019-05-02T20:29:22.697Z,11.20
2019-05-02T20:31:51.728Z,11.10
2019-05-02T20:34:22.268Z,11.20
2019-05-02T20:36:51.869Z,11.10
2019-05-02T20:39:22.473Z,11.20
2019-05-02T20:41:53.043Z,11.20
2019-05-02T20:44:22.333Z,11.10
2019-05-02T20:46:51.836Z,11.10
2019-05-02T20:49:21.037Z,11.10
2019-05-02T20:51:51.807Z,11.10
2019-05-02T20:54:21.031Z,11.00
2019-05-02T20:56:51.926Z,11.00
2019-05-02T20:59:21.820Z,11.00
2019-05-02T21:01:52.309Z,11.00
2019-05-02T21:04:22.900Z,10.90
2019-05-02T21:07:11.148Z,10.90
2019-05-02T21:09:47.723Z,10.90
2019-05-02T21:12:16.871Z,10.80
2019-05-02T21:14:46.543Z,10.90
2019-05-02T21:17:15.774Z,10.90
2019-05-02T21:19:45.128Z,10.90
2019-05-02T21:22:18.979Z,10.90
2019-05-02T21:24:48.154Z,10.90
2019-05-02T21:27:17.383Z,10.90
2019-05-02T21:29:52.103Z,10.90
2019-05-02T21:32:22.882Z,10.80
2019-05-02T21:34:52.089Z,10.80
2019-05-02T21:37:22.626Z,10.70
2019-05-02T21:39:52.149Z,10.80
2019-05-02T21:42:22.558Z,10.70
2019-05-02T21:44:52.059Z,10.70
2019-05-02T21:47:22.477Z,10.60
2019-05-02T21:49:58.325Z,10.60
2019-05-02T21:52:45.434Z,10.60
2019-05-02T21:55:22.039Z,10.50
2019-05-02T21:57:52.176Z,10.50
2019-05-02T22:01:02.202Z,10.40
2019-05-02T22:03:32.435Z,10.50
2019-05-02T22:06:01.782Z,10.40
2019-05-02T22:08:32.307Z,10.40
2019-05-02T22:11:01.952Z,10.40
2019-05-02T22:13:31.704Z,10.50
2019-05-02T22:16:02.330Z,10.50
2019-05-02T22:18:32.137Z,10.50
2019-05-02T22:21:01.760Z,10.50
2019-05-02T22:23:33.536Z,10.50
2019-05-02T22:26:02.178Z,10.50
2019-05-02T22:28:32.702Z,10.50
2019-05-02T22:31:03.208Z,10.50
2019-05-02T22:33:32.881Z,10.50
2019-05-02T22:36:02.126Z,10.50
2019-05-02T22:38:59.492Z,10.50
2019-05-02T22:41:28.712Z,10.50
2019-05-02T22:43:57.972Z,10.40
2019-05-02T22:46:43.773Z,10.40
2019-05-02T22:49:14.730Z,10.40
2019-05-02T22:51:44.363Z,10.40
2019-05-02T22:54:24.055Z,10.40
2019-05-02T22:56:44.332Z,10.30
2019-05-02T22:59:13.499Z,10.30
2019-05-02T23:01:42.875Z,10.30
2019-05-02T23:04:12.840Z,10.30
2019-05-02T23:06:44.144Z,10.30
2019-05-02T23:09:13.272Z,10.30
2019-05-02T23:11:42.737Z,10.30
2019-05-02T23:14:12.010Z,10.30
2019-05-02T23:16:42.671Z,10.30
2019-05-02T23:19:12.429Z,10.40
2019-05-02T23:21:42.211Z,10.40
2019-05-02T23:24:39.581Z,10.40
2019-05-02T23:27:24.458Z,10.40
2019-05-02T23:29:53.543Z,10.50
2019-05-02T23:32:23.844Z,10.50
2019-05-02T23:34:53.232Z,10.50
2019-05-02T23:37:22.394Z,10.50
2019-05-02T23:39:52.280Z,10.50
2019-05-02T23:42:21.984Z,10.50
2019-05-02T23:44:51.888Z,10.50
2019-05-02T23:47:22.451Z,10.50
2019-05-02T23:49:52.145Z,10.50
2019-05-02T23:52:22.468Z,10.50
2019-05-02T23:54:52.580Z,10.50
2019-05-02T23:57:22.948Z,10.40
2019-05-02T23:59:52.401Z,10.40
